Time;durP1;ratioP1;P1;durP2;ratioP2;P2;SDS_P1;SDS_P2;PMS_P1;PMS_P2;Temp;Humidity;BMP_temperature;BMP_pressure;BME280_temperature;BME280_humidity;BME280_pressure;Samples;Min_cycle;Max_cycle;Signal;HPM_P1;HPM_P2
2023/02/18 00:00:04;;;;;;;12.83;2.80;;;7.50;99.90;;;;;;5094314;28;20466;-71
2023/02/18 00:02:32;;;;;;;9.10;3.40;;;7.50;99.90;;;;;;5093827;28;20461;-72
2023/02/18 00:04:59;;;;;;;6.40;2.50;;;7.50;99.90;;;;;;5093521;28;20530;-72
2023/02/18 00:07:26;;;;;;;9.73;4.10;;;7.50;99.90;;;;;;5092471;28;20470;-71
2023/02/18 00:09:53;;;;;;;11.70;3.00;;;7.50;99.90;;;;;;5092532;28;20442;-71
2023/02/18 00:12:23;;;;;;;11.63;2.37;;;7.40;99.90;;;;;;5093242;28;20493;-72
2023/02/18 00:14:50;;;;;;;15.67;4.13;;;7.40;99.90;;;;;;5093548;28;20481;-71
2023/02/18 00:17:18;;;;;;;11.63;2.50;;;7.40;99.90;;;;;;5093319;28;20478;-72
2023/02/18 00:19:45;;;;;;;14.37;2.90;;;7.40;99.90;;;;;;5090710;28;20537;-72
2023/02/18 00:22:12;;;;;;;14.83;2.40;;;7.40;99.90;;;;;;5093595;28;20488;-71
2023/02/18 00:24:39;;;;;;;12.70;2.10;;;7.30;99.90;;;;;;5093268;28;20469;-72
2023/02/18 00:27:06;;;;;;;11.30;2.33;;;7.30;99.90;;;;;;5093201;28;20488;-71
2023/02/18 00:29:34;;;;;;;13.17;2.70;;;7.30;99.90;;;;;;5092280;28;20482;-71
2023/02/18 00:32:01;;;;;;;13.83;3.00;;;7.30;99.90;;;;;;5080297;28;20794;-71
2023/02/18 00:34:29;;;;;;;6.43;1.90;;;7.30;99.90;;;;;;5078187;28;20545;-70
2023/02/18 00:36:56;;;;;;;14.30;3.00;;;7.30;99.90;;;;;;5078075;28;20462;-70
2023/02/18 00:39:23;;;;;;;11.43;2.63;;;7.30;99.90;;;;;;5077940;28;20478;-71
2023/02/18 00:41:50;;;;;;;7.90;2.40;;;7.20;99.90;;;;;;5077494;28;20512;-71
2023/02/18 00:44:17;;;;;;;12.67;2.77;;;7.20;99.90;;;;;;5077683;28;20453;-70
2023/02/18 00:46:46;;;;;;;10.33;2.70;;;7.20;99.90;;;;;;5077936;28;20480;-70
2023/02/18 00:49:13;;;;;;;8.33;2.97;;;7.10;99.90;;;;;;5077943;28;20454;-71
2023/02/18 00:51:42;;;;;;;11.63;2.40;;;7.10;99.90;;;;;;5091160;28;20450;-72
2023/02/18 00:54:09;;;;;;;10.47;2.47;;;7.10;99.90;;;;;;5091611;28;20470;-71
2023/02/18 00:56:36;;;;;;;9.10;2.13;;;7.00;99.90;;;;;;5091323;28;20596;-71
2023/02/18 00:59:03;;;;;;;13.13;2.77;;;7.00;99.90;;;;;;5092310;28;20531;-72
2023/02/18 01:01:30;;;;;;;8.70;2.37;;;7.00;99.90;;;;;;5091347;28;20468;-72
2023/02/18 01:03:57;;;;;;;13.90;2.40;;;7.00;99.90;;;;;;5093692;28;20492;-71
2023/02/18 01:06:24;;;;;;;8.13;2.53;;;7.00;99.90;;;;;;5088849;28;20450;-71
2023/02/18 01:08:52;;;;;;;10.40;2.80;;;6.90;99.90;;;;;;5090099;28;20488;-71
2023/02/18 01:11:19;;;;;;;6.83;2.30;;;6.90;99.90;;;;;;5093994;28;20450;-71
2023/02/18 01:13:46;;;;;;;8.10;2.40;;;6.90;99.90;;;;;;5092322;28;20461;-71
2023/02/18 01:16:13;;;;;;;10.43;2.73;;;6.80;99.90;;;;;;5093035;28;20486;-71
2023/02/18 01:18:40;;;;;;;14.13;3.13;;;6.80;99.90;;;;;;5090409;28;20457;-72
2023/02/18 01:21:08;;;;;;;16.77;2.70;;;6.80;99.90;;;;;;5091856;28;20946;-70
2023/02/18 01:23:35;;;;;;;9.00;2.57;;;6.80;99.90;;;;;;5092132;28;20446;-72
2023/02/18 01:26:04;;;;;;;15.97;2.97;;;6.80;99.90;;;;;;5092903;28;20446;-71
2023/02/18 01:28:31;;;;;;;7.13;2.30;;;6.80;99.90;;;;;;5091553;28;20887;-71
2023/02/18 01:30:58;;;;;;;8.87;2.13;;;6.70;99.90;;;;;;5092847;28;20488;-72
2023/02/18 01:33:25;;;;;;;10.07;2.27;;;6.70;99.90;;;;;;5090890;28;20446;-71
2023/02/18 01:35:53;;;;;;;11.20;1.93;;;6.70;99.90;;;;;;5092271;28;20496;-70
2023/02/18 01:38:20;;;;;;;12.67;3.00;;;6.70;99.90;;;;;;5088769;28;20461;-71
2023/02/18 01:40:51;;;;;;;10.33;3.20;;;6.70;99.90;;;;;;5090085;28;20585;-70
2023/02/18 01:43:21;;;;;;;11.30;2.40;;;6.70;99.90;;;;;;5090946;28;20454;-71
2023/02/18 01:45:56;;;;;;;16.17;3.27;;;6.70;99.90;;;;;;5090076;28;20458;-71
2023/02/18 01:48:27;;;;;;;11.87;2.53;;;6.70;99.90;;;;;;5088300;28;20438;-71
2023/02/18 01:51:00;;;;;;;11.43;3.00;;;6.70;99.90;;;;;;5086738;28;20581;-70
2023/02/18 01:53:30;;;;;;;6.17;2.03;;;6.70;99.90;;;;;;5077181;28;20466;-71
2023/02/18 01:55:58;;;;;;;11.50;2.60;;;6.70;99.90;;;;;;5077405;28;20480;-70
2023/02/18 01:58:26;;;;;;;10.63;2.40;;;6.70;99.90;;;;;;5078361;28;20462;-71
2023/02/18 02:00:53;;;;;;;11.90;2.20;;;6.70;99.90;;;;;;5077839;28;20562;-71
2023/02/18 02:03:20;;;;;;;10.80;2.87;;;6.70;99.90;;;;;;5091151;28;20478;-71
2023/02/18 02:05:47;;;;;;;12.90;2.70;;;6.70;99.90;;;;;;5090583;28;20454;-71
2023/02/18 02:08:14;;;;;;;7.00;2.23;;;6.70;99.90;;;;;;5092308;28;20478;-72
2023/02/18 02:10:59;;;;;;;10.40;2.77;;;6.70;99.90;;;;;;5092189;28;20493;-70
2023/02/18 02:13:33;;;;;;;11.63;2.63;;;6.70;99.90;;;;;;5091095;28;20450;-71
2023/02/18 02:16:06;;;;;;;8.40;2.00;;;6.60;99.90;;;;;;5092219;28;20879;-71
2023/02/18 02:18:45;;;;;;;11.73;2.03;;;6.60;99.90;;;;;;5089741;28;20494;-72
2023/02/18 02:21:50;;;;;;;8.90;2.10;;;6.60;99.90;;;;;;5087666;28;20494;-72
2023/02/18 02:24:50;;;;;;;12.03;3.60;;;6.60;99.90;;;;;;5077865;28;20883;-72
2023/02/18 02:27:23;;;;;;;7.30;1.90;;;6.60;99.90;;;;;;5075718;28;20439;-70
2023/02/18 02:30:35;;;;;;;7.80;2.13;;;6.60;99.90;;;;;;5075937;28;20571;-72
2023/02/18 02:33:53;;;;;;;6.40;2.07;;;6.60;99.90;;;;;;5002024;28;20485;-72
2023/02/18 02:36:29;;;;;;;17.07;2.87;;;6.60;99.90;;;;;;4994640;28;20521;-70
2023/02/18 02:39:03;;;;;;;8.73;2.00;;;6.60;99.90;;;;;;4995075;28;20446;-71
2023/02/18 02:41:44;;;;;;;13.37;2.47;;;6.60;99.90;;;;;;5038664;28;20723;-70
2023/02/18 02:44:21;;;;;;;9.23;2.50;;;6.60;99.90;;;;;;5075903;28;20533;-71
2023/02/18 02:46:51;;;;;;;10.97;2.73;;;6.60;99.90;;;;;;5075875;28;20449;-71
2023/02/18 02:49:28;;;;;;;8.53;2.47;;;6.60;99.90;;;;;;5076073;28;20545;-72
2023/02/18 02:52:03;;;;;;;7.57;1.87;;;6.60;99.90;;;;;;5076214;28;20453;-71
2023/02/18 02:54:31;;;;;;;9.17;2.67;;;6.60;99.90;;;;;;5075744;28;20450;-71
2023/02/18 02:57:29;;;;;;;10.47;2.40;;;6.60;99.90;;;;;;5075409;28;20462;-71
2023/02/18 03:00:01;;;;;;;11.73;2.10;;;6.60;99.90;;;;;;5075230;28;20486;-71
2023/02/18 03:02:41;;;;;;;7.83;2.73;;;6.60;99.90;;;;;;5076399;28;20446;-71
2023/02/18 03:05:28;;;;;;;8.90;2.07;;;6.60;99.90;;;;;;5076372;28;20526;-70
2023/02/18 03:08:09;;;;;;;14.57;3.23;;;6.60;99.90;;;;;;5076667;28;20526;-70
2023/02/18 03:10:46;;;;;;;8.67;2.97;;;6.50;99.90;;;;;;5076106;28;20470;-71
2023/02/18 03:13:21;;;;;;;9.23;2.07;;;6.60;99.90;;;;;;5075613;28;20449;-71
2023/02/18 03:15:56;;;;;;;9.80;2.67;;;6.50;99.90;;;;;;5075099;28;20781;-71
2023/02/18 03:18:33;;;;;;;11.00;1.77;;;6.50;99.90;;;;;;5075067;28;20460;-71
2023/02/18 03:21:06;;;;;;;7.53;2.00;;;6.50;99.90;;;;;;5075336;28;20498;-70
2023/02/18 03:23:38;;;;;;;7.97;2.03;;;6.50;99.90;;;;;;5075790;28;20840;-71
2023/02/18 03:26:09;;;;;;;9.97;1.80;;;6.50;99.90;;;;;;5075315;28;20439;-71
2023/02/18 03:28:37;;;;;;;5.30;2.53;;;6.50;99.90;;;;;;5075094;28;20446;-71
2023/02/18 03:31:09;;;;;;;15.33;2.90;;;6.50;99.90;;;;;;5076216;28;20446;-72
2023/02/18 03:33:45;;;;;;;18.77;2.77;;;6.50;99.90;;;;;;5075170;28;20926;-71
2023/02/18 03:36:13;;;;;;;10.03;2.67;;;6.50;99.90;;;;;;5075144;28;20511;-70
2023/02/18 03:38:45;;;;;;;13.10;2.47;;;6.50;99.90;;;;;;5074971;28;20537;-70
2023/02/18 03:41:12;;;;;;;6.27;1.70;;;6.50;99.90;;;;;;5074668;28;20505;-69
2023/02/18 03:43:40;;;;;;;7.17;1.97;;;6.50;99.90;;;;;;5075079;28;20541;-70
2023/02/18 03:46:09;;;;;;;8.50;2.83;;;6.60;99.90;;;;;;5074731;28;20551;-70
2023/02/18 03:48:36;;;;;;;8.50;1.87;;;6.60;99.90;;;;;;5074927;28;20851;-71
2023/02/18 03:51:02;;;;;;;7.07;1.80;;;6.60;99.90;;;;;;5075525;28;20450;-70
2023/02/18 03:53:29;;;;;;;10.77;2.00;;;6.60;99.90;;;;;;5074605;28;20519;-72
2023/02/18 03:55:56;;;;;;;9.03;2.20;;;6.60;99.90;;;;;;5074557;28;20554;-69
2023/02/18 03:58:23;;;;;;;6.13;1.43;;;6.60;99.90;;;;;;5074375;28;20458;-70
2023/02/18 04:00:50;;;;;;;13.20;2.10;;;6.60;99.90;;;;;;5074708;28;20478;-70
2023/02/18 04:03:18;;;;;;;5.37;1.40;;;6.60;99.90;;;;;;5075006;28;20497;-71
2023/02/18 04:05:45;;;;;;;7.77;1.90;;;6.60;99.90;;;;;;5074214;28;20454;-69
2023/02/18 04:08:12;;;;;;;9.53;2.20;;;6.60;99.90;;;;;;5074901;28;20460;-70
2023/02/18 04:10:38;;;;;;;12.83;2.23;;;6.60;99.90;;;;;;5075516;28;20545;-69
2023/02/18 04:13:05;;;;;;;7.50;2.40;;;6.60;99.90;;;;;;5075462;28;20552;-71
2023/02/18 04:15:33;;;;;;;13.53;2.10;;;6.60;99.90;;;;;;5074693;28;20469;-70
2023/02/18 04:18:00;;;;;;;6.70;1.80;;;6.60;99.90;;;;;;5074079;28;20505;-71
2023/02/18 04:20:28;;;;;;;4.93;1.70;;;6.50;99.90;;;;;;5073957;28;20966;-71
2023/02/18 04:22:55;;;;;;;13.10;1.70;;;6.60;99.90;;;;;;5074385;28;20458;-71
2023/02/18 04:25:22;;;;;;;10.63;1.90;;;6.50;99.90;;;;;;5074453;28;20460;-72
2023/02/18 04:27:49;;;;;;;7.50;1.70;;;6.50;99.90;;;;;;5073986;28;21021;-69
2023/02/18 04:30:16;;;;;;;3.70;1.80;;;6.50;99.90;;;;;;5074284;28;20455;-71
2023/02/18 04:32:43;;;;;;;7.93;1.40;;;6.50;99.90;;;;;;5074281;28;20537;-70
2023/02/18 04:35:09;;;;;;;10.80;2.23;;;6.50;99.90;;;;;;5074604;28;20560;-71
2023/02/18 04:37:37;;;;;;;5.20;2.20;;;6.50;99.90;;;;;;5073795;28;20454;-71
2023/02/18 04:40:05;;;;;;;11.10;1.40;;;6.50;99.90;;;;;;5074014;28;20569;-71
2023/02/18 04:42:32;;;;;;;7.27;1.67;;;6.50;99.90;;;;;;5077407;28;20489;-71
2023/02/18 04:44:59;;;;;;;10.00;1.97;;;6.50;99.90;;;;;;5079376;28;20537;-71
2023/02/18 04:47:27;;;;;;;6.07;1.73;;;6.50;99.90;;;;;;5077778;28;20464;-70
2023/02/18 04:49:53;;;;;;;8.73;1.60;;;6.40;99.90;;;;;;5077544;28;20454;-71
2023/02/18 04:52:20;;;;;;;8.53;2.67;;;6.40;99.90;;;;;;5077708;28;20465;-71
2023/02/18 04:54:49;;;;;;;5.17;1.83;;;6.40;99.90;;;;;;5077502;28;20463;-70
2023/02/18 04:57:16;;;;;;;10.63;1.90;;;6.40;99.90;;;;;;5077542;28;20579;-70
2023/02/18 04:59:43;;;;;;;6.50;1.80;;;6.40;99.90;;;;;;5077442;28;20911;-70
2023/02/18 05:02:10;;;;;;;8.80;2.20;;;6.40;99.90;;;;;;5077469;28;20462;-69
2023/02/18 05:04:37;;;;;;;10.10;2.23;;;6.40;99.90;;;;;;5077807;28;20494;-69
2023/02/18 05:07:03;;;;;;;10.23;1.73;;;6.40;99.90;;;;;;5077541;28;20490;-70
2023/02/18 05:09:30;;;;;;;7.20;2.37;;;6.40;99.90;;;;;;5078951;28;20454;-71
2023/02/18 05:11:58;;;;;;;8.10;1.90;;;6.40;99.90;;;;;;5077460;28;20461;-71
2023/02/18 05:14:25;;;;;;;12.83;2.10;;;6.40;99.90;;;;;;5077095;28;20784;-71
2023/02/18 05:16:52;;;;;;;7.93;1.70;;;6.40;99.90;;;;;;5077236;28;20848;-71
2023/02/18 05:19:19;;;;;;;9.27;3.30;;;6.40;99.90;;;;;;5076683;28;20458;-70
2023/02/18 05:21:46;;;;;;;4.90;1.50;;;6.40;99.90;;;;;;5077124;28;20496;-71
2023/02/18 05:24:12;;;;;;;8.13;1.97;;;6.40;99.90;;;;;;5076831;28;20462;-70
2023/02/18 05:26:40;;;;;;;7.10;1.80;;;6.40;99.90;;;;;;5076996;28;20545;-70
2023/02/18 05:29:08;;;;;;;9.07;2.50;;;6.50;99.90;;;;;;5077289;28;20454;-70
2023/02/18 05:31:37;;;;;;;4.13;2.13;;;6.50;99.90;;;;;;5076874;28;20537;-70
2023/02/18 05:34:03;;;;;;;7.37;2.13;;;6.60;99.90;;;;;;5076709;28;20527;-70
2023/02/18 05:36:30;;;;;;;5.53;1.70;;;6.60;99.90;;;;;;5076629;28;20545;-71
2023/02/18 05:38:57;;;;;;;6.50;1.60;;;6.60;99.90;;;;;;5076827;28;20530;-70
2023/02/18 05:41:24;;;;;;;6.63;1.80;;;6.60;99.90;;;;;;5076581;28;20490;-71
2023/02/18 05:46:51;;;;;;;8.83;2.40;;;6.70;99.90;;;;;;5035160;28;20444;-70
2023/02/18 05:49:18;;;;;;;4.93;1.40;;;6.70;99.90;;;;;;5035592;28;20484;-70
2023/02/18 05:51:45;;;;;;;5.57;1.63;;;6.70;99.90;;;;;;5053379;28;20455;-70
2023/02/18 05:54:12;;;;;;;5.10;1.50;;;6.70;99.90;;;;;;5076255;28;20533;-70
2023/02/18 05:56:39;;;;;;;3.90;1.30;;;6.70;99.90;;;;;;5076609;28;20554;-70
2023/02/18 05:59:05;;;;;;;7.10;2.13;;;6.80;99.90;;;;;;5076544;28;20523;-71
2023/02/18 06:01:32;;;;;;;5.03;1.90;;;6.80;99.90;;;;;;5076704;28;20478;-71
2023/02/18 06:04:00;;;;;;;11.57;1.70;;;6.80;99.90;;;;;;5076702;28;20553;-70
2023/02/18 06:06:30;;;;;;;3.20;1.53;;;6.90;99.90;;;;;;5076437;28;20547;-71
2023/02/18 06:08:57;;;;;;;8.10;1.77;;;6.90;99.90;;;;;;5076807;28;20844;-70
2023/02/18 06:11:23;;;;;;;3.40;1.43;;;6.90;99.90;;;;;;5076073;28;20460;-71
2023/02/18 06:13:50;;;;;;;3.67;1.40;;;6.90;99.90;;;;;;5076965;28;20454;-70
2023/02/18 06:16:17;;;;;;;3.97;1.40;;;7.00;99.90;;;;;;5076821;28;20511;-70
2023/02/18 06:18:44;;;;;;;5.53;1.70;;;7.00;99.90;;;;;;5076385;28;20533;-70
2023/02/18 06:21:12;;;;;;;4.07;1.67;;;7.00;99.90;;;;;;5078507;28;20573;-70
2023/02/18 06:23:39;;;;;;;7.70;2.33;;;7.00;99.90;;;;;;5077446;28;20482;-71
2023/02/18 06:26:06;;;;;;;5.10;2.00;;;7.10;99.90;;;;;;5076111;28;20465;-70
2023/02/18 06:28:33;;;;;;;9.00;1.50;;;7.10;99.90;;;;;;5076680;28;20454;-71
2023/02/18 06:31:00;;;;;;;5.10;1.50;;;7.10;99.90;;;;;;5076080;28;20454;-70
2023/02/18 06:33:27;;;;;;;3.87;1.20;;;7.10;99.90;;;;;;5076471;28;20541;-70
2023/02/18 06:35:56;;;;;;;6.93;1.97;;;7.10;99.90;;;;;;5076663;28;20458;-71
2023/02/18 06:38:24;;;;;;;5.20;1.83;;;7.10;99.90;;;;;;5076659;28;20586;-71
2023/02/18 06:40:51;;;;;;;3.70;1.37;;;7.10;99.90;;;;;;5076148;28;21002;-71
2023/02/18 06:43:19;;;;;;;6.80;1.90;;;7.20;99.90;;;;;;5076932;28;20859;-70
2023/02/18 06:45:46;;;;;;;16.10;2.20;;;7.20;99.90;;;;;;5076674;28;20553;-71
2023/02/18 06:48:13;;;;;;;4.97;1.60;;;7.20;99.90;;;;;;5080642;28;20501;-72
2023/02/18 06:50:41;;;;;;;5.73;1.77;;;7.20;99.90;;;;;;5085797;28;20478;-72
2023/02/18 06:53:08;;;;;;;6.57;1.93;;;7.20;99.90;;;;;;5088350;28;20486;-71
2023/02/18 06:55:36;;;;;;;12.50;1.47;;;7.20;99.90;;;;;;5089453;28;20485;-71
2023/02/18 06:58:04;;;;;;;9.53;2.43;;;7.20;99.90;;;;;;5088321;28;20461;-71
2023/02/18 07:00:31;;;;;;;3.00;1.20;;;7.30;99.90;;;;;;5086330;28;20937;-71
2023/02/18 07:02:58;;;;;;;5.80;1.43;;;7.30;99.90;;;;;;5084415;28;20534;-72
2023/02/18 07:05:24;;;;;;;3.87;1.20;;;7.30;99.90;;;;;;5084826;28;20552;-72
2023/02/18 07:07:51;;;;;;;5.20;1.40;;;7.30;99.90;;;;;;5086337;28;20497;-72
2023/02/18 07:10:18;;;;;;;6.70;1.37;;;7.30;99.90;;;;;;5087813;28;20533;-73
2023/02/18 07:12:47;;;;;;;3.60;1.50;;;7.30;99.90;;;;;;5087804;28;20510;-71
2023/02/18 07:15:13;;;;;;;11.53;2.00;;;7.40;99.90;;;;;;5089954;28;20481;-71
2023/02/18 07:17:40;;;;;;;4.03;1.73;;;7.40;99.90;;;;;;5088318;28;20958;-71
2023/02/18 07:20:08;;;;;;;5.40;1.50;;;7.40;99.90;;;;;;5089955;28;20451;-71
2023/02/18 07:22:35;;;;;;;4.13;1.20;;;7.40;99.90;;;;;;5089277;28;20489;-71
2023/02/18 07:25:03;;;;;;;7.43;1.60;;;7.40;99.90;;;;;;5088816;28;20515;-71
2023/02/18 07:27:30;;;;;;;5.90;1.80;;;7.50;99.90;;;;;;5088145;28;20457;-71
2023/02/18 07:29:58;;;;;;;4.20;1.60;;;7.50;99.90;;;;;;5085708;28;20489;-71
2023/02/18 07:32:25;;;;;;;5.23;1.57;;;7.50;99.90;;;;;;5082063;28;20513;-71
2023/02/18 07:34:52;;;;;;;5.83;1.50;;;7.50;99.90;;;;;;5081646;28;20454;-72
2023/02/18 07:37:19;;;;;;;4.83;1.90;;;7.50;99.90;;;;;;5083353;28;20469;-71
2023/02/18 07:39:46;;;;;;;4.37;1.40;;;7.50;99.90;;;;;;5082378;28;20454;-71
2023/02/18 07:42:13;;;;;;;1.67;1.10;;;7.50;99.90;;;;;;5082041;28;20946;-69
2023/02/18 07:44:40;;;;;;;2.70;1.30;;;7.50;99.90;;;;;;5082361;28;20946;-71
2023/02/18 07:47:14;;;;;;;4.67;1.50;;;7.50;99.90;;;;;;5081992;28;20854;-71
2023/02/18 07:49:41;;;;;;;3.73;1.27;;;7.50;99.90;;;;;;5081934;28;20470;-71
2023/02/18 07:52:08;;;;;;;4.33;1.63;;;7.50;99.90;;;;;;5082015;28;20544;-71
2023/02/18 07:54:35;;;;;;;7.90;1.90;;;7.50;99.90;;;;;;5083176;28;20522;-73
2023/02/18 07:57:02;;;;;;;5.37;1.60;;;7.60;99.90;;;;;;5082811;28;20518;-71
2023/02/18 07:59:29;;;;;;;5.07;1.90;;;7.60;99.90;;;;;;5081886;28;20458;-70
2023/02/18 08:01:56;;;;;;;9.20;2.03;;;7.60;99.90;;;;;;5082169;28;20510;-70
2023/02/18 08:04:24;;;;;;;4.27;1.40;;;7.60;99.90;;;;;;5083374;28;20508;-72
2023/02/18 08:06:52;;;;;;;7.83;2.03;;;7.50;99.90;;;;;;5081502;28;20451;-72
2023/02/18 08:09:19;;;;;;;8.57;1.40;;;7.40;99.90;;;;;;5081652;28;21014;-73
2023/02/18 08:11:46;;;;;;;7.40;1.80;;;7.40;99.90;;;;;;5082142;28;20473;-71
2023/02/18 08:14:12;;;;;;;5.27;1.50;;;7.30;99.90;;;;;;5082380;28;20500;-71
2023/02/18 08:16:39;;;;;;;7.20;1.60;;;7.20;99.90;;;;;;5082247;28;20597;-71
2023/02/18 08:19:07;;;;;;;4.50;1.27;;;7.10;99.90;;;;;;5085758;28;20489;-71
2023/02/18 08:21:35;;;;;;;5.37;1.30;;;7.10;99.90;;;;;;5085836;28;20488;-70
2023/02/18 08:24:02;;;;;;;2.50;1.43;;;7.10;99.90;;;;;;5087189;28;20482;-71
2023/02/18 08:26:29;;;;;;;4.77;1.97;;;7.20;99.90;;;;;;5086589;28;20458;-72
2023/02/18 08:28:56;;;;;;;4.60;1.50;;;7.20;99.90;;;;;;5085620;28;20450;-70
2023/02/18 08:31:25;;;;;;;4.13;1.30;;;7.20;99.90;;;;;;5085719;28;20485;-71
2023/02/18 08:33:52;;;;;;;3.97;1.23;;;7.20;99.90;;;;;;5084221;28;20455;-71
2023/02/18 08:36:19;;;;;;;3.20;1.70;;;7.10;99.90;;;;;;5083281;28;20485;-72
2023/02/18 08:38:47;;;;;;;3.27;1.43;;;7.00;99.90;;;;;;5079418;28;20458;-73
2023/02/18 08:41:14;;;;;;;5.00;1.20;;;6.90;99.90;;;;;;5079192;28;20485;-72
2023/02/18 08:43:41;;;;;;;5.90;1.13;;;6.90;99.90;;;;;;5079509;28;20621;-73
2023/02/18 08:46:08;;;;;;;5.20;1.67;;;6.90;99.90;;;;;;5079335;28;20540;-71
2023/02/18 08:48:35;;;;;;;4.10;1.40;;;6.90;99.90;;;;;;5079261;28;20493;-71
2023/02/18 08:51:12;;;;;;;6.93;1.77;;;6.80;99.90;;;;;;5078570;28;20836;-72
2023/02/18 08:53:39;;;;;;;3.97;1.63;;;6.80;99.90;;;;;;5078631;28;20441;-71
2023/02/18 08:56:09;;;;;;;6.80;2.00;;;6.70;99.90;;;;;;5077847;28;20454;-72
2023/02/18 08:58:37;;;;;;;7.70;1.70;;;6.70;99.90;;;;;;5077661;28;20953;-72
2023/02/18 09:01:05;;;;;;;8.40;1.80;;;6.60;99.90;;;;;;5077230;28;20945;-73
2023/02/18 09:03:32;;;;;;;5.17;1.60;;;6.60;99.90;;;;;;5077907;28;20473;-71
2023/02/18 09:06:00;;;;;;;5.90;1.70;;;6.60;99.90;;;;;;5077643;28;20541;-73
2023/02/18 09:08:27;;;;;;;2.90;1.40;;;6.50;99.90;;;;;;5077718;28;20497;-73
2023/02/18 09:10:56;;;;;;;4.97;1.50;;;6.50;99.90;;;;;;5077378;28;20541;-71
2023/02/18 09:13:25;;;;;;;5.80;1.83;;;6.50;99.90;;;;;;5079504;28;20454;-74
2023/02/18 09:15:59;;;;;;;5.73;1.77;;;6.60;99.90;;;;;;5080114;28;20796;-73
2023/02/18 09:18:27;;;;;;;4.80;1.77;;;6.60;99.90;;;;;;5079635;28;20454;-72
2023/02/18 09:20:57;;;;;;;4.43;1.70;;;6.60;99.90;;;;;;5079421;28;20485;-74
2023/02/18 09:23:24;;;;;;;6.60;1.50;;;6.70;99.90;;;;;;5079565;28;20477;-71
2023/02/18 09:25:51;;;;;;;10.40;3.10;;;6.70;99.90;;;;;;5079655;28;20863;-70
2023/02/18 09:28:18;;;;;;;4.00;1.37;;;6.80;99.90;;;;;;5079842;28;20517;-72
2023/02/18 09:30:46;;;;;;;4.20;1.20;;;6.80;99.90;;;;;;5097161;28;20853;-72
2023/02/18 09:33:13;;;;;;;8.33;1.80;;;6.80;99.90;;;;;;5099933;28;20484;-72
2023/02/18 09:35:44;;;;;;;13.47;1.80;;;6.80;99.90;;;;;;5099979;28;20831;-72
2023/02/18 09:38:12;;;;;;;5.93;1.57;;;6.80;99.90;;;;;;5098978;28;20449;-71
2023/02/18 09:40:43;;;;;;;5.00;2.00;;;6.80;99.90;;;;;;5097272;28;20465;-74
2023/02/18 09:43:20;;;;;;;6.30;1.63;;;6.80;99.90;;;;;;5099247;28;20556;-73
2023/02/18 09:45:49;;;;;;;7.47;2.20;;;6.80;99.90;;;;;;5099136;28;20452;-71
2023/02/18 09:48:16;;;;;;;6.20;2.13;;;6.80;99.90;;;;;;5098270;28;20457;-73
2023/02/18 09:50:50;;;;;;;5.17;1.73;;;6.80;99.90;;;;;;5085602;28;20480;-71
2023/02/18 09:53:18;;;;;;;5.93;1.93;;;6.90;99.90;;;;;;5077309;28;20523;-72
2023/02/18 09:55:45;;;;;;;5.33;2.00;;;6.80;99.90;;;;;;5077344;28;20537;-73
2023/02/18 09:58:15;;;;;;;9.50;2.00;;;6.80;99.90;;;;;;5077285;28;20560;-73
2023/02/18 10:00:46;;;;;;;5.53;1.70;;;6.90;99.90;;;;;;5076709;28;20494;-72
2023/02/18 10:03:19;;;;;;;6.50;2.00;;;6.90;99.90;;;;;;5079334;28;20467;-73
2023/02/18 10:05:55;;;;;;;7.93;2.77;;;6.80;99.90;;;;;;5076528;28;20862;-73
2023/02/18 10:08:26;;;;;;;4.60;2.00;;;6.80;99.90;;;;;;5078222;28;20495;-72
2023/02/18 10:10:52;;;;;;;10.20;2.40;;;6.80;99.90;;;;;;5082509;28;20459;-71
2023/02/18 10:13:23;;;;;;;12.37;2.73;;;6.70;99.90;;;;;;5081533;28;20549;-71
2023/02/18 10:15:51;;;;;;;25.17;10.27;;;6.70;99.90;;;;;;5079814;28;20446;-72
2023/02/18 10:18:27;;;;;;;8.67;2.50;;;6.70;99.90;;;;;;5082182;28;20520;-72
2023/02/18 10:21:03;;;;;;;7.93;2.90;;;6.80;99.90;;;;;;5081377;28;20780;-71
2023/02/18 10:23:32;;;;;;;7.87;2.70;;;6.80;99.90;;;;;;5081242;28;20472;-71
2023/02/18 10:26:02;;;;;;;17.40;3.70;;;6.80;99.90;;;;;;5082816;28;20534;-72
2023/02/18 10:28:30;;;;;;;13.97;3.17;;;6.80;99.90;;;;;;5081681;28;20541;-72
2023/02/18 10:31:03;;;;;;;8.50;2.90;;;6.80;99.90;;;;;;5082197;28;20466;-74
2023/02/18 10:33:36;;;;;;;6.00;2.50;;;6.80;99.90;;;;;;5075890;28;20443;-70
2023/02/18 10:36:22;;;;;;;6.10;2.70;;;6.80;99.90;;;;;;5075086;28;20465;-71
2023/02/18 10:39:12;;;;;;;19.27;2.90;;;6.90;99.90;;;;;;5072323;28;20814;-71
2023/02/18 10:41:47;;;;;;;10.90;2.67;;;6.90;99.90;;;;;;5057785;28;20486;-71
2023/02/18 10:44:23;;;;;;;6.43;2.77;;;6.90;99.90;;;;;;5075144;28;20556;-71
2023/02/18 10:46:58;;;;;;;7.53;2.80;;;7.00;99.90;;;;;;5075701;28;20728;-70
2023/02/18 10:49:54;;;;;;;7.80;2.93;;;6.90;99.90;;;;;;5075720;28;20449;-71
2023/02/18 10:52:21;;;;;;;5.40;3.07;;;6.90;99.90;;;;;;5076175;28;20550;-72
2023/02/18 10:54:51;;;;;;;7.07;2.63;;;6.90;99.90;;;;;;5076337;28;20537;-72
2023/02/18 10:57:20;;;;;;;4.30;2.60;;;6.90;99.90;;;;;;5076671;28;20993;-70
2023/02/18 10:59:56;;;;;;;7.33;2.60;;;6.90;99.90;;;;;;5076140;28;20938;-71
2023/02/18 11:02:28;;;;;;;6.17;3.13;;;6.80;99.90;;;;;;5076598;28;20553;-72
2023/02/18 11:04:58;;;;;;;3.30;2.37;;;6.80;99.90;;;;;;5076768;28;20435;-72
2023/02/18 11:07:31;;;;;;;5.50;2.63;;;6.80;99.90;;;;;;5076896;28;20458;-70
2023/02/18 11:10:00;;;;;;;4.47;2.30;;;6.80;99.90;;;;;;5076205;28;20761;-71
2023/02/18 11:12:30;;;;;;;6.37;2.50;;;6.80;99.90;;;;;;5074849;28;20541;-71
2023/02/18 11:15:17;;;;;;;5.00;1.93;;;6.80;99.90;;;;;;5074811;28;20469;-70
2023/02/18 11:17:46;;;;;;;9.70;3.10;;;6.90;99.90;;;;;;5074696;28;20454;-71
2023/02/18 11:20:29;;;;;;;6.60;2.70;;;6.90;99.90;;;;;;5074877;28;20549;-70
2023/02/18 11:23:16;;;;;;;5.07;2.60;;;6.90;99.90;;;;;;5074685;28;20972;-71
2023/02/18 11:25:56;;;;;;;7.20;2.83;;;7.00;99.90;;;;;;5075023;28;20631;-71
2023/02/18 11:28:40;;;;;;;5.50;2.20;;;7.00;99.90;;;;;;5075507;28;20433;-71
2023/02/18 11:31:08;;;;;;;7.00;3.50;;;7.00;99.90;;;;;;5074440;28;20446;-71
2023/02/18 11:33:40;;;;;;;4.37;3.00;;;7.00;99.90;;;;;;5074633;28;20925;-70
2023/02/18 11:36:25;;;;;;;3.70;2.83;;;7.00;99.90;;;;;;5074736;28;20500;-70
2023/02/18 11:38:55;;;;;;;5.83;3.60;;;7.00;99.90;;;;;;5074677;28;20442;-70
2023/02/18 11:41:30;;;;;;;6.30;3.60;;;7.00;99.90;;;;;;5074247;28;20509;-72
2023/02/18 11:43:58;;;;;;;6.07;2.83;;;7.00;99.90;;;;;;5074734;28;20492;-71
2023/02/18 11:46:26;;;;;;;5.13;3.07;;;7.00;99.90;;;;;;5074456;28;20953;-71
2023/02/18 11:48:54;;;;;;;9.17;4.60;;;7.00;99.90;;;;;;5074229;28;20464;-70
2023/02/18 11:51:26;;;;;;;4.80;3.57;;;7.10;99.90;;;;;;5074252;28;20491;-71
2023/02/18 11:53:59;;;;;;;9.70;6.00;;;7.10;99.90;;;;;;5076767;28;20441;-72
2023/02/18 11:56:28;;;;;;;6.73;4.13;;;7.10;99.90;;;;;;5078752;28;20484;-71
2023/02/18 11:58:56;;;;;;;7.70;3.53;;;7.10;99.90;;;;;;5078631;28;20826;-72
2023/02/18 12:01:41;;;;;;;6.00;3.83;;;7.10;99.90;;;;;;5078526;28;20454;-70
2023/02/18 12:04:13;;;;;;;8.87;4.40;;;7.20;99.90;;;;;;5078206;28;20470;-71
2023/02/18 12:06:48;;;;;;;5.93;3.40;;;7.20;99.90;;;;;;5078017;28;20851;-72
2023/02/18 12:09:23;;;;;;;6.40;3.10;;;7.30;99.90;;;;;;5078740;28;20537;-69
2023/02/18 12:11:53;;;;;;;4.60;4.10;;;7.40;99.90;;;;;;5078184;28;20785;-70
2023/02/18 12:14:22;;;;;;;10.10;5.80;;;7.50;99.90;;;;;;5078467;28;20464;-70
2023/02/18 12:17:07;;;;;;;6.20;3.97;;;7.50;99.90;;;;;;5078140;28;20501;-70
2023/02/18 12:19:52;;;;;;;4.50;3.40;;;7.60;99.90;;;;;;5078354;28;20525;-70
2023/02/18 12:22:29;;;;;;;3.80;3.23;;;7.70;99.90;;;;;;5078342;28;20466;-71
2023/02/18 12:25:09;;;;;;;3.70;2.83;;;7.80;99.90;;;;;;5077972;28;20875;-70
2023/02/18 12:27:43;;;;;;;6.30;4.73;;;7.90;99.90;;;;;;5077848;28;20442;-71
2023/02/18 12:30:36;;;;;;;5.80;4.00;;;8.00;99.90;;;;;;5078014;28;20453;-70
2023/02/18 12:33:12;;;;;;;4.20;3.47;;;8.10;99.90;;;;;;5077924;28;20504;-70
2023/02/18 12:35:55;;;;;;;5.03;3.87;;;8.10;99.90;;;;;;5078065;28;20525;-70
2023/02/18 12:38:42;;;;;;;4.67;3.80;;;8.20;99.90;;;;;;5078270;28;20458;-71
2023/02/18 12:41:23;;;;;;;5.20;4.00;;;8.30;99.90;;;;;;5077828;28;20481;-70
2023/02/18 12:43:59;;;;;;;4.33;3.70;;;8.40;99.90;;;;;;5077940;28;21029;-70
2023/02/18 12:46:48;;;;;;;4.40;3.50;;;8.60;99.90;;;;;;5078479;28;20505;-72
2023/02/18 12:49:39;;;;;;;5.93;4.60;;;8.70;99.90;;;;;;5078363;28;20452;-70
2023/02/18 12:52:19;;;;;;;8.17;5.53;;;8.80;99.90;;;;;;5077947;28;20770;-71
2023/02/18 12:55:09;;;;;;;10.10;5.30;;;9.00;99.90;;;;;;5078456;28;20529;-70
2023/02/18 12:57:43;;;;;;;10.10;6.07;;;9.10;99.90;;;;;;5077570;28;20492;-70
2023/02/18 13:00:40;;;;;;;13.13;9.87;;;9.20;99.90;;;;;;5077733;28;20456;-70
2023/02/18 13:03:39;;;;;;;8.43;6.70;;;9.30;99.90;;;;;;5077003;28;20462;-70
2023/02/18 13:06:17;;;;;;;6.70;5.80;;;9.40;99.90;;;;;;5077620;28;20477;-70
2023/02/18 13:08:55;;;;;;;7.70;5.70;;;9.50;99.90;;;;;;5077898;28;20452;-69
2023/02/18 13:11:37;;;;;;;11.37;6.80;;;9.70;99.90;;;;;;5077639;28;20442;-68
2023/02/18 13:14:12;;;;;;;8.10;5.63;;;9.70;99.90;;;;;;5077308;28;20436;-71
2023/02/18 13:16:43;;;;;;;8.00;5.60;;;9.80;99.90;;;;;;5077940;28;20469;-70